Time;durP1;ratioP1;P1;durP2;ratioP2;P2;SDS_P1;SDS_P2;PMS_P1;PMS_P2;Temp;Humidity;BMP_temperature;BMP_pressure;BME280_temperature;BME280_humidity;BME280_pressure;Samples;Min_cycle;Max_cycle;Signal;HPM_P1;HPM_P2
2023/07/26 00:02:02;;;;;;;25.25;17.25;;;;;;;22.69;53.41;92478.75;4972061;28;20054;-89
2023/07/26 00:04:27;;;;;;;22.88;16.65;;;;;;;22.70;53.39;92478.19;4978899;28;20045;-90
2023/07/26 00:06:53;;;;;;;23.88;16.98;;;;;;;22.68;53.57;92488.31;4962682;28;20047;-90
2023/07/26 00:09:18;;;;;;;24.05;16.23;;;;;;;22.68;53.38;92478.03;4987593;28;20405;-90
2023/07/26 00:11:44;;;;;;;22.60;16.55;;;;;;;22.68;53.33;92478.03;4965441;28;20046;-90
2023/07/26 00:14:09;;;;;;;27.33;17.90;;;;;;;22.70;53.08;92480.22;4986736;28;20042;-90
2023/07/26 00:16:36;;;;;;;24.42;16.10;;;;;;;22.70;53.17;92477.47;4968052;28;20047;-90
2023/07/26 00:19:01;;;;;;;23.83;17.13;;;;;;;22.69;53.22;92476.00;4951894;28;20568;-90
2023/07/26 00:21:27;;;;;;;21.48;15.57;;;;;;;22.69;53.33;92479.50;4967764;28;20060;-89
2023/07/26 00:23:52;;;;;;;21.35;15.10;;;;;;;22.68;53.31;92480.78;4982364;28;20050;-90
2023/07/26 00:26:18;;;;;;;21.10;15.90;;;;;;;22.68;53.15;92488.31;4970998;28;20045;-90
2023/07/26 00:28:43;;;;;;;26.25;16.35;;;;;;;22.68;53.22;92491.06;4964750;28;20405;-90
2023/07/26 00:31:08;;;;;;;20.92;14.13;;;;;;;22.68;53.27;92496.59;5003731;28;20095;-90
2023/07/26 00:33:34;;;;;;;22.52;15.57;;;;;;;22.66;53.11;92508.16;4963409;28;20054;-90
2023/07/26 00:35:59;;;;;;;20.90;14.40;;;;;;;22.66;53.10;92502.66;4987422;28;20054;-90
2023/07/26 00:38:25;;;;;;;22.15;14.38;;;;;;;22.69;53.06;92503.56;4986609;28;20046;-89
2023/07/26 00:40:50;;;;;;;20.70;14.70;;;;;;;22.68;52.85;92500.06;4961316;28;20050;-90
2023/07/26 00:43:16;;;;;;;22.83;14.38;;;;;;;22.67;52.98;92500.63;4966445;28;20073;-89
2023/07/26 00:45:41;;;;;;;20.85;14.88;;;;;;;22.66;52.84;92494.38;4970125;28;20453;-90
2023/07/26 00:48:07;;;;;;;19.90;13.25;;;;;;;22.70;53.02;92507.78;4967397;28;20109;-89
2023/07/26 00:50:32;;;;;;;18.75;12.73;;;;;;;22.69;52.88;92506.31;4970497;28;20120;-90
2023/07/26 00:52:58;;;;;;;20.30;13.88;;;;;;;22.66;53.09;92510.19;4969171;28;20472;-89
2023/07/26 00:55:24;;;;;;;25.83;14.57;;;;;;;22.66;52.88;92510.19;4985930;28;20520;-90
2023/07/26 00:57:49;;;;;;;21.40;14.57;;;;;;;22.67;52.85;92511.66;4951428;28;20138;-90
2023/07/26 01:00:14;;;;;;;17.17;12.48;;;;;;;22.68;53.03;92513.13;4983247;28;20046;-90
2023/07/26 01:02:40;;;;;;;17.52;12.98;;;;;;;22.66;52.67;92507.44;4984926;28;20038;-90
2023/07/26 01:05:05;;;;;;;21.25;13.55;;;;;;;22.66;52.80;92512.94;4968272;28;20054;-90
2023/07/26 01:07:58;;;;;;;17.58;13.13;;;;;;;22.66;52.92;92504.69;4980717;28;20046;-90
2023/07/26 01:10:49;;;;;;;16.55;11.85;;;;;;;22.67;52.66;92497.88;4968425;28;20053;-89
2023/07/26 01:13:24;;;;;;;16.70;12.02;;;;;;;22.64;52.64;92494.22;4984546;28;20090;-90
2023/07/26 01:15:49;;;;;;;18.35;13.23;;;;;;;22.64;52.65;92501.75;4967735;28;20580;-90
2023/07/26 01:18:16;;;;;;;15.52;11.77;;;;;;;22.63;52.79;92492.75;4981109;28;20038;-90
2023/07/26 01:20:42;;;;;;;19.48;13.80;;;;;;;22.63;52.75;92500.28;4972213;28;20602;-90
2023/07/26 01:23:07;;;;;;;19.40;12.50;;;;;;;22.64;52.88;92501.75;4984373;28;20053;-90
2023/07/26 01:25:33;;;;;;;17.23;12.65;;;;;;;22.63;52.92;92484.47;4968216;28;20060;-90
2023/07/26 01:27:58;;;;;;;14.85;10.30;;;;;;;22.63;52.96;92490.00;4982376;28;20050;-90
2023/07/26 01:30:29;;;;;;;16.95;12.23;;;;;;;22.62;52.78;92480.28;4963911;28;20081;-90
2023/07/26 01:32:54;;;;;;;17.33;11.30;;;;;;;22.67;52.60;92482.06;4997964;28;20138;-89
2023/07/26 01:35:19;;;;;;;17.35;12.05;;;;;;;22.62;52.69;92485.03;4969407;28;20589;-90
2023/07/26 01:37:45;;;;;;;14.48;10.00;;;;;;;22.66;52.71;92477.84;4969895;28;20034;-90
2023/07/26 01:40:11;;;;;;;17.25;11.35;;;;;;;22.63;52.95;92475.50;4969096;28;20417;-89
2023/07/26 01:42:36;;;;;;;16.80;11.55;;;;;;;22.64;52.68;92482.47;4953939;28;20038;-90
2023/07/26 01:45:02;;;;;;;20.45;12.25;;;;;;;22.63;52.78;92472.75;4969413;28;20039;-90
2023/07/26 01:47:28;;;;;;;16.55;12.07;;;;;;;22.66;52.79;92488.16;4985794;28;20329;-89
2023/07/26 01:49:53;;;;;;;16.90;11.00;;;;;;;22.64;52.56;92482.47;4969542;28;20042;-89
2023/07/26 01:52:18;;;;;;;16.40;10.77;;;;;;;22.62;52.72;92491.28;4968697;28;20077;-90
2023/07/26 01:54:44;;;;;;;16.98;10.90;;;;;;;22.64;52.71;92499.72;4966223;28;20043;-90
2023/07/26 01:57:09;;;;;;;18.65;11.27;;;;;;;22.62;52.58;92507.81;4951030;28;20038;-90
2023/07/26 01:59:35;;;;;;;15.13;11.00;;;;;;;22.66;52.68;92518.44;4994715;28;20066;-90
2023/07/26 02:02:00;;;;;;;17.63;10.75;;;;;;;22.65;52.56;92525.97;4969399;28;20054;-89
2023/07/26 02:04:26;;;;;;;12.30;9.15;;;;;;;22.64;52.72;92526.53;4982531;28;20042;-90
2023/07/26 02:06:52;;;;;;;13.57;9.65;;;;;;;22.65;52.86;92530.75;4976332;28;20046;-90
2023/07/26 02:09:17;;;;;;;13.57;10.02;;;;;;;22.64;52.81;92530.03;4984859;28;20053;-89
2023/07/26 02:11:43;;;;;;;15.95;10.30;;;;;;;22.61;52.85;92542.16;4966381;28;20045;-90
2023/07/26 02:14:08;;;;;;;16.77;10.25;;;;;;;22.62;52.88;92562.19;4958182;28;20038;-89
2023/07/26 02:16:34;;;;;;;14.00;9.50;;;;;;;22.64;52.75;92556.84;4968579;28;20047;-90
2023/07/26 02:18:59;;;;;;;15.57;9.45;;;;;;;22.62;52.57;92557.41;4985265;28;20045;-89
2023/07/26 02:21:24;;;;;;;13.95;10.07;;;;;;;22.63;52.55;92558.13;4968569;28;20034;-90
2023/07/26 02:23:53;;;;;;;12.98;9.57;;;;;;;22.63;52.75;92563.66;4963934;28;20046;-90
2023/07/26 02:26:18;;;;;;;14.30;10.15;;;;;;;22.61;52.44;92560.72;4968698;28;20051;-90
2023/07/26 02:28:44;;;;;;;11.95;9.30;;;;;;;22.60;52.63;92557.22;4984880;28;20403;-89
2023/07/26 02:31:09;;;;;;;16.13;11.05;;;;;;;22.60;52.74;92567.50;4984743;28;20469;-89
2023/07/26 02:33:34;;;;;;;15.40;10.15;;;;;;;22.58;52.63;92560.53;4985351;28;20111;-89
2023/07/26 02:36:00;;;;;;;13.95;10.70;;;;;;;22.60;52.54;92573.75;4968759;28;20096;-89
2023/07/26 02:38:25;;;;;;;14.15;9.70;;;;;;;22.59;52.71;92575.03;4984720;28;20497;-89
2023/07/26 02:40:51;;;;;;;15.43;9.30;;;;;;;22.60;52.69;92589.56;4980075;28;20042;-90
2023/07/26 02:43:18;;;;;;;13.20;8.48;;;;;;;22.62;52.73;92589.72;5017653;28;20045;-89
2023/07/26 02:45:43;;;;;;;11.98;8.55;;;;;;;22.61;52.47;92589.00;4965198;28;20051;-90
2023/07/26 02:48:08;;;;;;;13.02;9.65;;;;;;;22.62;52.62;92600.75;4995977;28;20069;-90
2023/07/26 02:50:34;;;;;;;12.07;9.10;;;;;;;22.62;52.58;92601.47;4980097;28;20039;-89
2023/07/26 02:52:59;;;;;;;14.25;9.30;;;;;;;22.61;52.50;92602.03;4949223;28;20039;-90
2023/07/26 02:55:25;;;;;;;13.13;8.80;;;;;;;22.60;52.74;92595.78;4967917;28;20051;-89
2023/07/26 02:57:50;;;;;;;12.43;8.30;;;;;;;22.62;52.40;92611.75;4980723;28;20034;-89
2023/07/26 03:00:16;;;;;;;11.45;8.60;;;;;;;22.60;52.37;92615.06;4974862;28;20046;-90
2023/07/26 03:02:41;;;;;;;11.77;8.55;;;;;;;22.58;52.40;92621.13;4978834;28;20046;-89
2023/07/26 03:05:08;;;;;;;11.75;8.27;;;;;;;22.59;52.37;92638.41;4963513;28;20125;-89
2023/07/26 03:07:33;;;;;;;12.63;8.63;;;;;;;22.59;52.42;92641.16;4955036;28;20046;-89
2023/07/26 03:09:58;;;;;;;10.82;8.00;;;;;;;22.58;52.38;92645.94;4972705;28;20042;-89
2023/07/26 03:12:24;;;;;;;12.38;8.32;;;;;;;22.62;52.92;92650.34;4976386;28;20035;-90
2023/07/26 03:14:49;;;;;;;11.15;7.82;;;;;;;22.58;52.38;92640.41;4963038;28;20045;-89
2023/07/26 03:17:15;;;;;;;10.38;7.40;;;;;;;22.58;52.45;92650.72;4971838;28;20112;-89
2023/07/26 03:19:40;;;;;;;10.48;7.80;;;;;;;22.60;52.32;92647.41;4988807;28;20042;-89
2023/07/26 03:22:06;;;;;;;11.48;8.25;;;;;;;22.58;52.68;92647.94;4975001;28;20038;-90
2023/07/26 03:24:31;;;;;;;10.20;7.10;;;;;;;22.56;52.46;92645.03;4972715;28;20034;-90
2023/07/26 03:26:57;;;;;;;9.23;7.65;;;;;;;22.58;52.37;92637.66;4972749;28;20047;-89
2023/07/26 03:29:22;;;;;;;11.10;7.50;;;;;;;22.57;52.42;92643.72;4972605;28;20461;-90
2023/07/26 03:31:48;;;;;;;12.02;8.45;;;;;;;22.61;52.43;92644.09;4964472;28;20046;-89
2023/07/26 03:34:13;;;;;;;12.65;7.18;;;;;;;22.64;52.47;92656.03;4972975;28;20055;-91
2023/07/26 03:36:39;;;;;;;11.70;7.72;;;;;;;22.68;52.32;92648.84;4971856;28;20046;-88
2023/07/26 03:39:04;;;;;;;24.90;9.75;;;;;;;22.74;52.15;92670.66;4987530;28;20283;-89
2023/07/26 03:41:29;;;;;;;24.67;11.75;;;;;;;22.78;52.33;92666.25;4971099;28;20058;-89
2023/07/26 03:43:55;;;;;;;14.55;8.95;;;;;;;22.73;52.15;92669.97;4987790;28;20062;-90
2023/07/26 03:46:20;;;;;;;132.90;66.55;;;;;;;22.83;51.62;92683.88;4967526;28;20038;-87
2023/07/26 03:48:47;;;;;;;23.30;13.23;;;;;;;22.81;51.64;92684.44;4972603;28;20556;-90
2023/07/26 03:51:12;;;;;;;13.38;10.23;;;;;;;22.74;51.55;92693.44;4976063;28;20057;-93
2023/07/26 03:53:38;;;;;;;21.17;12.85;;;;;;;22.67;51.79;92693.47;5006917;28;20035;-91
2023/07/26 03:56:03;;;;;;;14.65;10.20;;;;;;;22.67;51.89;92696.97;4970116;28;20051;-89
2023/07/26 03:58:29;;;;;;;19.85;9.60;;;;;;;22.67;51.72;92699.00;4973655;28;20045;-92
2023/07/26 04:00:54;;;;;;;20.80;11.25;;;;;;;22.66;51.85;92708.53;4985909;28;20097;-93
2023/07/26 04:03:20;;;;;;;57.20;20.60;;;;;;;22.59;51.15;92715.53;4956133;28;20042;-90
2023/07/26 04:05:45;;;;;;;57.72;20.63;;;;;;;22.47;50.65;92720.72;4976236;28;20041;-92
2023/07/26 04:08:11;;;;;;;85.15;36.65;;;;;;;22.48;50.76;92713.91;4987820;28;20034;-91
2023/07/26 04:10:37;;;;;;;82.63;27.73;;;;;;;22.50;50.61;92722.38;4984818;28;20143;-91
2023/07/26 04:13:02;;;;;;;89.88;32.25;;;;;;;22.57;50.24;92727.09;4948996;28;20051;-90
2023/07/26 04:15:29;;;;;;;179.90;56.88;;;;;;;22.52;50.65;92735.56;4957962;28;20047;-91
2023/07/26 04:17:54;;;;;;;112.95;43.60;;;;;;;22.50;49.85;92741.66;4951752;28;20083;-91
2023/07/26 04:20:21;;;;;;;134.52;47.10;;;;;;;22.44;50.55;92740.38;4939520;28;20039;-90
2023/07/26 04:22:46;;;;;;;132.23;55.03;;;;;;;22.47;50.39;92742.00;4950632;28;20047;-91
2023/07/26 04:25:12;;;;;;;164.32;60.70;;;;;;;22.52;50.25;92752.81;4965702;28;20125;-92
2023/07/26 04:27:37;;;;;;;159.65;66.07;;;;;;;22.56;50.37;92744.91;4936048;28;20070;-91
2023/07/26 04:30:03;;;;;;;120.57;50.08;;;;;;;22.48;48.62;92741.47;4966800;28;20050;-91
2023/07/26 04:32:28;;;;;;;66.65;30.88;;;;;;;22.14;49.82;92750.13;4964200;28;20047;-90
2023/07/26 04:34:54;;;;;;;84.68;35.95;;;;;;;21.98;49.67;92751.38;4977994;28;20134;-91
2023/07/26 04:37:19;;;;;;;51.30;28.20;;;;;;;21.81;49.56;92748.44;4950824;28;20039;-90
2023/07/26 04:39:45;;;;;;;38.17;19.15;;;;;;;21.61;50.28;92760.34;4963373;28;20125;-90
2023/07/26 04:42:11;;;;;;;39.40;17.55;;;;;;;21.57;50.11;92763.44;4937705;28;20086;-92
2023/07/26 04:44:36;;;;;;;149.93;65.03;;;;;;;21.52;50.34;92767.81;4978567;28;20517;-91
2023/07/26 04:47:02;;;;;;;183.25;63.75;;;;;;;21.47;50.34;92765.25;4991506;28;20042;-92
2023/07/26 04:49:28;;;;;;;66.85;26.00;;;;;;;21.43;49.95;92767.63;4955053;28;20034;-91
2023/07/26 04:51:53;;;;;;;75.63;20.65;;;;;;;21.23;50.54;92773.97;4985976;28;20054;-92
2023/07/26 04:54:20;;;;;;;279.05;56.40;;;;;;;21.28;50.23;92781.31;4998751;28;20093;-90
2023/07/26 04:56:45;;;;;;;184.05;36.92;;;;;;;20.93;50.74;92783.53;4981283;28;20042;-90
2023/07/26 04:59:11;;;;;;;266.67;94.97;;;;;;;20.85;50.84;92778.00;4980288;28;20053;-90
2023/07/26 05:01:36;;;;;;;114.03;38.97;;;;;;;20.61;51.00;92783.91;4995706;28;20038;-90
2023/07/26 05:04:02;;;;;;;102.57;33.58;;;;;;;20.53;51.42;92791.38;4990084;28;20034;-91
2023/07/26 05:06:30;;;;;;;152.52;54.95;;;;;;;20.56;51.69;92784.81;5020227;28;20046;-91
2023/07/26 05:08:55;;;;;;;99.07;35.03;;;;;;;20.64;51.49;92798.56;4985718;28;20054;-90
2023/07/26 05:11:22;;;;;;;52.67;17.17;;;;;;;20.74;51.18;92789.31;4996077;28;20039;-90
2023/07/26 05:13:48;;;;;;;57.63;17.35;;;;;;;20.71;51.50;92801.38;5013835;28;20042;-91
2023/07/26 05:16:14;;;;;;;164.85;76.35;;;;;;;20.52;51.41;92798.16;4952668;28;20794;-90
2023/07/26 05:18:39;;;;;;;90.28;28.65;;;;;;;20.42;51.90;92806.13;4960314;28;20051;-89
2023/07/26 05:21:06;;;;;;;78.35;33.92;;;;;;;20.50;51.91;92801.44;4951641;28;20038;-91
2023/07/26 05:23:31;;;;;;;82.55;31.02;;;;;;;20.67;51.58;92795.50;4966054;28;20051;-89
2023/07/26 05:25:56;;;;;;;86.63;36.08;;;;;;;20.81;51.22;92807.09;4989690;28;20389;-89
2023/07/26 05:28:22;;;;;;;90.93;32.05;;;;;;;20.90;51.21;92809.34;4969125;28;21045;-90
2023/07/26 05:30:48;;;;;;;172.88;42.58;;;;;;;21.02;50.68;92813.25;4975965;28;20049;-88
2023/07/26 05:33:14;;;;;;;127.07;34.08;;;;;;;21.11;50.48;92828.50;4980646;28;20074;-89
2023/07/26 05:35:40;;;;;;;148.18;51.47;;;;;;;21.15;50.24;92818.63;4980457;28;20113;-89
2023/07/26 05:38:06;;;;;;;92.53;28.98;;;;;;;21.20;50.08;92830.78;4988247;28;20035;-90
2023/07/26 05:40:31;;;;;;;158.43;47.47;;;;;;;21.27;50.04;92829.34;5021896;28;20093;-89
2023/07/26 05:42:57;;;;;;;131.57;41.80;;;;;;;21.48;49.75;92833.44;4980973;28;20043;-89
2023/07/26 05:45:22;;;;;;;143.57;44.33;;;;;;;21.46;49.48;92838.75;4983680;28;20050;-89
2023/07/26 05:47:48;;;;;;;131.73;38.97;;;;;;;21.46;49.62;92838.03;4970703;28;20089;-89
2023/07/26 05:50:14;;;;;;;122.55;42.13;;;;;;;21.47;49.89;92834.72;4984928;28;20562;-88
2023/07/26 05:52:40;;;;;;;114.70;39.13;;;;;;;21.53;49.53;92846.31;4986970;28;20039;-89
2023/07/26 05:55:06;;;;;;;119.53;44.85;;;;;;;21.52;49.61;92849.59;4954943;28;20031;-89
2023/07/26 05:57:32;;;;;;;83.47;30.00;;;;;;;21.56;49.56;92844.47;4970178;28;20059;-88
2023/07/26 05:59:57;;;;;;;111.88;32.80;;;;;;;21.63;49.16;92854.78;4985169;28;20887;-88
2023/07/26 06:02:26;;;;;;;88.88;30.40;;;;;;;21.78;48.99;92851.34;4967713;28;20034;-89
2023/07/26 06:04:52;;;;;;;83.90;30.65;;;;;;;21.75;48.79;92852.41;4968023;28;20034;-87
2023/07/26 06:07:18;;;;;;;72.45;28.80;;;;;;;21.73;49.08;92858.47;4965971;28;20038;-88
2023/07/26 06:09:43;;;;;;;76.53;25.20;;;;;;;21.71;48.82;92858.28;4980915;28;20092;-87
2023/07/26 06:12:09;;;;;;;76.43;25.60;;;;;;;21.73;48.82;92874.25;4982259;28;20042;-86
2023/07/26 06:14:35;;;;;;;51.80;20.70;;;;;;;21.75;48.77;92868.94;4976104;28;20160;-87
2023/07/26 06:17:00;;;;;;;71.75;21.75;;;;;;;21.70;48.74;92872.56;4993085;28;20058;-89
2023/07/26 06:19:27;;;;;;;49.10;19.58;;;;;;;21.70;48.72;92878.06;4977941;28;20042;-90
2023/07/26 06:21:55;;;;;;;44.83;17.83;;;;;;;21.74;48.45;92886.72;4983797;28;20043;-87
2023/07/26 06:24:26;;;;;;;44.67;16.73;;;;;;;21.72;48.57;92883.78;4994007;28;20469;-87
2023/07/26 06:26:52;;;;;;;;;;;;;;;21.65;48.59;92887.97;4982666;28;20527;-88
2023/07/26 06:29:17;;;;;;;47.70;15.75;;;;;;;21.64;48.47;92883.75;5016311;28;19925;-88
2023/07/26 06:31:43;;;;;;;110.95;27.15;;;;;;;21.72;48.44;92881.03;4993110;28;20085;-90
2023/07/26 06:34:08;;;;;;;42.33;17.95;;;;;;;21.65;48.40;92890.72;4967125;28;20050;-90
2023/07/26 06:36:34;;;;;;;74.13;31.88;;;;;;;21.64;48.42;92900.25;4969446;28;20074;-89
2023/07/26 06:38:59;;;;;;;120.30;36.17;;;;;;;21.72;48.55;92898.25;4969021;28;20034;-89
2023/07/26 06:41:25;;;;;;;80.90;27.27;;;;;;;21.65;48.49;92904.47;4963919;28;20050;-90
2023/07/26 06:43:50;;;;;;;88.72;26.65;;;;;;;21.63;48.62;92898.78;4981976;28;20038;-90
2023/07/26 06:46:16;;;;;;;111.88;26.70;;;;;;;21.66;48.47;92903.19;4985006;28;20039;-88
2023/07/26 06:48:41;;;;;;;107.05;28.98;;;;;;;21.69;48.53;92901.38;4969860;28;20122;-88
2023/07/26 06:51:10;;;;;;;136.05;33.03;;;;;;;21.65;48.53;92893.47;4985177;28;20160;-89
2023/07/26 06:53:35;;;;;;;83.75;25.73;;;;;;;21.53;48.44;92900.56;4988134;28;20046;-88
2023/07/26 06:56:02;;;;;;;95.00;26.10;;;;;;;21.44;48.72;92901.06;4976457;28;20159;-88
2023/07/26 06:58:27;;;;;;;103.60;22.45;;;;;;;21.30;49.03;92905.97;4976226;28;21354;-89
2023/07/26 07:00:54;;;;;;;120.60;25.20;;;;;;;21.26;49.34;92913.09;4991778;28;20058;-89
2023/07/26 07:03:20;;;;;;;107.60;23.63;;;;;;;21.18;49.42;92913.75;4982123;28;20485;-89
2023/07/26 07:05:45;;;;;;;116.30;24.15;;;;;;;21.16;49.70;92919.06;4965004;28;20050;-89
2023/07/26 07:08:11;;;;;;;107.35;20.05;;;;;;;21.13;49.85;92922.16;4970514;28;20042;-90
2023/07/26 07:10:37;;;;;;;319.17;40.45;;;;;;;21.15;49.74;92925.09;4963049;28;20073;-88
2023/07/26 07:13:02;;;;;;;55.85;10.85;;;;;;;21.16;49.42;92930.06;4984708;28;20043;-88
2023/07/26 07:15:27;;;;;;;64.28;17.55;;;;;;;20.98;49.87;92930.31;5006149;28;20038;-88
2023/07/26 07:17:53;;;;;;;56.03;14.25;;;;;;;20.91;50.01;92928.97;4964871;28;20049;-89
2023/07/26 07:20:19;;;;;;;74.28;16.85;;;;;;;20.83;50.16;92928.91;4990240;28;20042;-90
2023/07/26 07:22:45;;;;;;;29.10;8.13;;;;;;;20.72;50.37;92931.22;4987187;28;20034;-89
2023/07/26 07:25:10;;;;;;;31.58;10.25;;;;;;;20.66;50.46;92931.34;4966073;28;20038;-89
2023/07/26 07:27:36;;;;;;;34.15;8.05;;;;;;;20.68;50.60;92939.03;5000905;28;20076;-89
2023/07/26 07:30:02;;;;;;;53.80;18.10;;;;;;;20.62;50.56;92932.94;4976306;28;20053;-88
2023/07/26 07:32:27;;;;;;;29.48;8.48;;;;;;;20.67;50.63;92937.56;4975531;28;20150;-89
2023/07/26 07:34:53;;;;;;;44.90;16.83;;;;;;;20.60;50.61;92936.22;4974698;28;20050;-88
2023/07/26 07:37:19;;;;;;;383.13;51.95;;;;;;;20.55;50.64;92939.13;4987296;28;20070;-88
2023/07/26 07:39:45;;;;;;;337.88;50.10;;;;;;;20.58;50.73;92940.78;4989519;28;20127;-89
2023/07/26 07:42:10;;;;;;;157.32;50.67;;;;;;;20.63;50.57;92948.16;4968213;28;20035;-89
2023/07/26 07:44:36;;;;;;;107.50;36.88;;;;;;;20.58;50.26;92955.25;4962732;28;20077;-86
2023/07/26 07:47:02;;;;;;;90.15;28.02;;;;;;;20.51;50.68;92947.69;4982853;28;20757;-87
2023/07/26 07:49:28;;;;;;;49.60;20.48;;;;;;;20.33;50.98;92941.09;4976405;28;20050;-87
2023/07/26 07:51:53;;;;;;;58.15;24.33;;;;;;;20.47;50.83;92942.53;4984769;28;20718;-86
2023/07/26 07:54:19;;;;;;;59.20;25.90;;;;;;;20.53;50.35;92950.66;5006067;28;20042;-87
2023/07/26 07:56:45;;;;;;;87.97;30.05;;;;;;;20.73;50.41;92957.41;5021053;28;20051;-88
2023/07/26 07:59:11;;;;;;;103.80;38.35;;;;;;;20.75;50.40;92949.38;4967165;28;20062;-87
2023/07/26 08:01:37;;;;;;;113.80;50.95;;;;;;;20.84;50.08;92954.38;4992447;28;20044;-88
2023/07/26 08:04:02;;;;;;;120.28;49.60;;;;;;;20.93;49.86;92958.66;5003591;28;20092;-87
2023/07/26 08:06:29;;;;;;;85.80;40.22;;;;;;;21.00;50.01;92953.19;4979412;28;20077;-87
2023/07/26 08:08:54;;;;;;;195.20;78.22;;;;;;;21.11;49.69;92949.44;4988746;28;20133;-86
2023/07/26 08:11:20;;;;;;;134.63;52.00;;;;;;;21.20;49.60;92952.47;4992428;28;20521;-88
2023/07/26 08:13:46;;;;;;;141.45;61.30;;;;;;;21.24;49.46;92963.09;4991596;28;20138;-88
2023/07/26 08:16:12;;;;;;;167.77;69.50;;;;;;;21.30;49.45;92960.22;4969493;28;20039;-90
2023/07/26 08:18:37;;;;;;;188.70;74.85;;;;;;;21.36;49.25;92952.56;4969110;28;20035;-86
2023/07/26 08:21:03;;;;;;;218.40;98.65;;;;;;;21.38;49.31;92953.50;4971245;28;20069;-88
2023/07/26 08:23:30;;;;;;;239.73;85.70;;;;;;;21.40;49.30;92961.19;4973340;28;20053;-88
2023/07/26 08:25:55;;;;;;;226.77;83.60;;;;;;;21.36;49.40;92952.56;4970842;28;20082;-89
2023/07/26 08:28:21;;;;;;;226.75;84.43;;;;;;;21.39;49.32;92962.47;4971726;28;20262;-87
2023/07/26 08:30:46;;;;;;;274.10;92.28;;;;;;;21.44;49.30;92965.06;4973838;28;20039;-90
2023/07/26 08:33:12;;;;;;;249.52;89.78;;;;;;;21.47;49.36;92971.50;4973560;28;20046;-88
2023/07/26 08:35:37;;;;;;;219.63;85.50;;;;;;;21.50;49.08;92968.41;4988867;28;20050;-87
2023/07/26 08:38:03;;;;;;;171.82;72.60;;;;;;;21.57;48.64;92969.72;4971196;28;20047;-89
2023/07/26 08:40:28;;;;;;;185.55;72.40;;;;;;;21.62;49.23;92970.84;5005736;28;20460;-88
2023/07/26 08:42:55;;;;;;;190.30;87.38;;;;;;;21.66;49.06;92973.97;4970273;28;20506;-90
2023/07/26 08:45:20;;;;;;;183.50;82.90;;;;;;;21.69;48.77;92978.38;5004184;28;20129;-90
2023/07/26 08:47:46;;;;;;;180.95;80.13;;;;;;;21.62;49.26;92963.34;4956935;28;20105;-87
2023/07/26 08:50:11;;;;;;;203.57;90.25;;;;;;;21.61;49.30;92972.88;4970702;28;20046;-90
2023/07/26 08:52:37;;;;;;;188.20;81.63;;;;;;;21.67;49.11;92970.69;4974159;28;20047;-90
2023/07/26 08:55:06;;;;;;;181.13;74.25;;;;;;;21.65;49.42;92981.50;4973926;28;20080;-89
2023/07/26 08:57:34;;;;;;;166.55;74.90;;;;;;;21.69;49.04;92964.63;4955196;28;20098;-94
2023/07/26 08:59:59;;;;;;;193.82;79.97;;;;;;;21.62;49.33;92976.34;4968380;28;20050;-90
2023/07/26 09:02:25;;;;;;;167.98;76.63;;;;;;;21.65;49.35;92967.72;4970395;28;20049;-91
2023/07/26 09:04:50;;;;;;;193.20;87.75;;;;;;;21.69;49.13;92968.13;4987682;28;20060;-92
2023/07/26 09:07:16;;;;;;;175.77;75.22;;;;;;;21.77;49.03;92981.94;4968584;28;20046;-90
2023/07/26 09:09:41;;;;;;;173.60;79.22;;;;;;;21.72;49.22;92974.56;4956593;28;20037;-89
2023/07/26 09:12:07;;;;;;;149.88;70.03;;;;;;;21.78;49.16;92975.16;4970734;28;20058;-90
2023/07/26 09:14:33;;;;;;;158.27;71.85;;;;;;;21.78;49.20;92973.13;5006215;28;20062;-91
2023/07/26 09:17:03;;;;;;;140.68;70.30;;;;;;;21.78;49.41;92977.91;4997846;28;20096;-94
2023/07/26 09:19:29;;;;;;;88.10;40.30;;;;;;;21.81;47.94;92977.53;4974441;28;20074;-92
2023/07/26 09:22:01;;;;;;;74.15;30.65;;;;;;;21.61;48.36;92981.13;5006537;28;20046;-92
2023/07/26 09:24:33;;;;;;;80.32;33.10;;;;;;;21.54;48.60;92985.28;4968301;28;20569;-91
2023/07/26 09:27:06;;;;;;;169.15;53.08;;;;;;;21.53;48.81;92988.59;4975398;28;20046;-89
2023/07/26 09:29:32;;;;;;;131.60;47.13;;;;;;;21.61;48.94;92997.63;4975518;28;20574;-91
2023/07/26 09:31:57;;;;;;;241.70;70.43;;;;;;;21.59;48.64;92985.69;4986889;28;20537;-91
2023/07/26 09:34:23;;;;;;;189.60;72.82;;;;;;;21.69;48.52;92983.91;4964234;28;20118;-91
2023/07/26 09:36:49;;;;;;;156.27;61.60;;;;;;;21.72;48.83;92983.53;4997920;28;20057;-90
2023/07/26 09:39:16;;;;;;;180.85;74.38;;;;;;;21.73;49.11;92984.28;4967380;28;20050;-90
2023/07/26 09:41:41;;;;;;;256.58;96.90;;;;;;;21.73;48.69;92970.53;4968435;28;20053;-90
2023/07/26 09:44:13;;;;;;;221.63;93.15;;;;;;;21.78;48.64;92977.91;5006384;28;20054;-90
2023/07/26 09:46:49;;;;;;;204.40;95.95;;;;;;;21.72;48.81;92985.56;5006876;28;20070;-89
2023/07/26 09:49:19;;;;;;;245.35;97.93;;;;;;;21.75;48.96;92982.47;4974336;28;20070;-89
2023/07/26 09:51:44;;;;;;;258.88;121.88;;;;;;;21.77;48.61;92987.44;4972906;28;20043;-91
2023/07/26 09:54:11;;;;;;;246.80;128.15;;;;;;;21.77;48.84;92985.41;4971262;28;20049;-90
2023/07/26 09:56:38;;;;;;;242.82;132.95;;;;;;;21.76;49.02;92992.19;4970990;28;20449;-90
2023/07/26 09:59:10;;;;;;;222.00;121.28;;;;;;;21.83;49.36;92990.75;4971994;28;20042;-90
2023/07/26 10:01:40;;;;;;;182.48;102.45;;;;;;;21.79;49.15;92985.59;4970596;28;20124;-91
2023/07/26 10:04:09;;;;;;;206.60;104.05;;;;;;;21.85;49.33;92982.72;4969232;28;20481;-90
2023/07/26 10:06:35;;;;;;;189.82;105.25;;;;;;;21.82;49.02;92984.53;4985612;28;20082;-90
2023/07/26 10:09:00;;;;;;;176.27;95.68;;;;;;;21.83;49.11;92980.50;4969046;28;20050;-91
2023/07/26 10:11:26;;;;;;;182.38;93.75;;;;;;;21.77;49.06;92990.91;4986175;28;20053;-90
2023/07/26 10:13:51;;;;;;;159.38;87.00;;;;;;;21.83;49.15;92977.00;4954312;28;20042;-91
2023/07/26 10:16:17;;;;;;;148.63;84.60;;;;;;;21.88;48.97;92981.59;4993836;28;20074;-90
2023/07/26 10:18:42;;;;;;;136.60;75.28;;;;;;;21.74;48.66;92978.25;4954481;28;20100;-90
2023/07/26 10:21:08;;;;;;;135.02;72.93;;;;;;;21.79;48.89;92973.88;4969873;28;20034;-90
2023/07/26 10:23:33;;;;;;;119.65;71.55;;;;;;;21.77;48.51;92977.16;4962025;28;20046;-90
2023/07/26 10:26:00;;;;;;;125.25;71.78;;;;;;;21.79;48.57;92982.84;4966280;28;20043;-90
2023/07/26 10:28:26;;;;;;;109.68;62.17;;;;;;;21.79;48.52;92987.63;4984787;28;20118;-90
2023/07/26 10:30:52;;;;;;;97.72;55.55;;;;;;;21.80;48.14;92991.84;4978024;28;20047;-90
2023/07/26 10:33:17;;;;;;;89.75;52.60;;;;;;;21.76;48.04;92992.19;4982059;28;20054;-90
2023/07/26 10:35:43;;;;;;;83.18;51.50;;;;;;;21.82;48.38;92992.03;4966785;28;20038;-90
2023/07/26 10:38:08;;;;;;;75.05;42.25;;;;;;;21.78;48.21;93000.66;4983541;28;20043;-90
2023/07/26 10:40:40;;;;;;;82.10;46.15;;;;;;;21.76;48.31;93005.94;4970672;28;20042;-90
2023/07/26 10:43:20;;;;;;;71.70;43.28;;;;;;;21.78;48.01;93003.41;4967779;28;20035;-90
2023/07/26 10:45:47;;;;;;;78.13;44.55;;;;;;;21.72;48.03;93011.06;4969199;28;20525;-91
2023/07/26 10:48:26;;;;;;;81.38;47.15;;;;;;;21.80;48.13;93017.34;4950979;28;20102;-90
2023/07/26 10:50:55;;;;;;;78.75;42.45;;;;;;;21.78;48.45;93008.16;4975665;28;20045;-90
2023/07/26 10:53:37;;;;;;;53.50;28.15;;;;;;;21.71;46.83;93006.84;4961845;28;20047;-90
2023/07/26 10:56:12;;;;;;;36.20;17.25;;;;;;;21.54;47.03;93017.56;4967037;28;20050;-90
2023/07/26 10:58:51;;;;;;;35.45;16.30;;;;;;;21.45;47.13;93007.03;4959297;28;20039;-90
2023/07/26 11:01:41;;;;;;;30.25;10.82;;;;;;;21.35;47.46;93008.81;4987352;28;21281;-90
2023/07/26 11:04:11;;;;;;;46.10;12.25;;;;;;;21.27;47.66;92995.00;4985843;28;20501;-89
2023/07/26 11:06:49;;;;;;;26.23;12.25;;;;;;;21.31;47.72;93020.16;4987088;28;20050;-89
2023/07/26 11:09:19;;;;;;;58.28;16.83;;;;;;;21.37;47.41;93020.75;4993761;28;20042;-90
2023/07/26 11:11:58;;;;;;;50.38;20.42;;;;;;;21.43;47.59;93021.34;4964040;28;20564;-90